Terminal Aerodrome Forecast
Issued by NWS

Home | Current Version | Previous Version | Text Only | Print | Product List | Glossary On
Versions: 1 2 3 4 5 6 7 8 9 10 11 12 13 14
000
FTUS42 TJSJ 301700
TAFJMZ
TAF
TJMZ 301730Z 3018/3118 25008KT P6SM VCSH BKN030
     FM302200 09004KT P6SM SCT030
     FM311500 25009KT P6SM SCT030
     FM311700 26008KT P6SM BKN040=

USA.gov is the U.S. government's official web portal to all federal, state and local government web resources and services.